Flight Track Log - Related Links

Times and Time Zones

All times are in EDT time to prevent confusion due to time zone crossing. See the N364PH flight status page for this flight to view local times or setup timezone preferences in your user account.

Time Position Orientation Groundspeed Altitude Reporting Facility
EDT Latitude Longitude Course Direction KTS MPH feet Rate Location/Type
Mon 10:57:08 PM 40.7500 -74.1167 342° North 186 214 2,800  Level New York TRACON
Mon 10:58:08 PM 40.7667 -74.1833 288° West 205 236 4,100 1,400 Climbing New York TRACON
Mon 10:59:08 PM 40.7833 -74.2500 288° West 206 237 5,600 1,400 Climbing New York TRACON
Mon 11:00:00 PM 41.0435 -74.3329 342° North  Level FlightAware Approximate
Mon 11:00:08 PM 40.8167 -74.3000 311° West 204 235 6,900  Level New York TRACON
Mon 11:01:00 PM 41.1064 -74.3602 342° North  Level FlightAware Approximate
Mon 11:01:14 PM 40.8833 -74.3333 339° North 201 231 8,400  Level New York TRACON
Mon 11:02:00 PM 41.1692 -74.3881 342° North  Level FlightAware Approximate
Mon 11:02:14 PM 40.9333 -74.3500 346° North 209 241 9,900  Level New York TRACON
Mon 11:03:03 PM 40.9775 -74.3769 335° Northwest 235 270 9,900 550 Level New York Center
Mon 11:04:03 PM 41.0369 -74.4078 339° North 252 290 10,900 1,109 Climbing New York Center
Mon 11:05:02 PM 41.1025 -74.4386 340° North 225 259 12,100 595 Climbing New York Center
Mon 11:06:04 PM 41.1619 -74.4694 339° North 239 275 12,100  Level New York Center
Mon 11:07:04 PM 41.2419 -74.5097 339° North 264 304 12,100  Level New York Center
Mon 11:08:04 PM 41.3097 -74.5411 341° North 274 315 12,100  Level New York Center
Mon 11:09:04 PM 41.3917 -74.5789 341° North 279 321 12,100  Level New York Center
Mon 11:10:03 PM 41.4375 -74.6481 311° West 273 314 12,100  Level New York Center
Mon 11:12:03 PM 41.5231 -74.8192 304° West 286 329 12,100  Level Boston Center
Mon 11:13:03 PM 41.5669 -74.9094 303° West 276 318 12,100  Level Boston Center
Mon 11:14:03 PM 41.6242 -74.9561 329° Northwest 260 299 12,100  Level Boston Center
Mon 11:15:03 PM 41.6939 -75.0119 329° Northwest 267 307 12,100  Level Boston Center
Mon 11:16:03 PM 41.7511 -75.0586 329° Northwest 267 307 12,100  Level Boston Center
Mon 11:17:03 PM 41.8206 -75.1172 328° Northwest 272 313 12,100  Level Boston Center
Mon 11:18:03 PM 41.8778 -75.1617 330° Northwest 272 313 12,100  Level Boston Center
Mon 11:19:03 PM 41.9433 -75.2175 328° Northwest 272 313 12,100  Level Boston Center
Mon 11:20:15 PM 42.0189 -75.2767 330° Northwest 272 313 12,100 -45 Level Boston Center
Mon 11:21:15 PM 42.0822 -75.3269 329° Northwest 272 313 12,000 -50 Descending Boston Center
Mon 11:22:15 PM 42.1478 -75.3719 333° Northwest 267 307 12,000  Level Boston Center
Mon 11:23:15 PM 42.2133 -75.4200 332° Northwest 261 300 12,000  Level Boston Center
Mon 11:24:15 PM 42.2789 -75.4653 333° Northwest 261 300 12,000 -50 Level Boston Center
Mon 11:25:15 PM 42.3442 -75.5106 333° Northwest 261 300 11,900 -50 Descending Boston Center
Mon 11:26:15 PM 42.4097 -75.5561 333° Northwest 261 300 11,900 53 Level Boston Center
Mon 11:27:09 PM 42.4750 -75.6069 330° Northwest 267 307 12,000 -150 Climbing Boston Center
Mon 11:28:15 PM 42.5403 -75.6556 331° Northwest 261 300 11,600 -429 Descending Boston Center
Mon 11:29:15 PM 42.6100 -75.6986 336° Northwest 261 300 11,100 -700 Descending Boston Center
Mon 11:30:15 PM 42.6794 -75.7503 331° Northwest 268 308 10,200 -950 Descending Boston Center
Mon 11:31:15 PM 42.7469 -75.7964 333° Northwest 268 308 9,200 -1,000 Descending Boston Center
Mon 11:32:15 PM 42.8100 -75.8481 329° Northwest 273 314 8,200 -1,068 Descending Boston Center
Mon 11:33:13 PM 42.8617 -75.9272 312° West 249 287 7,100 -1,050 Descending Boston Center
Mon 11:34:15 PM 42.9097 -75.9925 315° West 252 290 6,100 -1,033 Descending Boston Center
Mon 11:35:15 PM 42.9575 -76.0633 313° West 247 284 5,000 -1,041 Descending Boston Center
Mon 11:36:16 PM 43.0056 -76.1286 315° West 247 284 4,000 -1,000 Descending Boston Center
Mon 11:37:15 PM 43.0478 -76.1767 320° Northwest 229 264 3,000 -1,059 Descending Boston Center
Mon 11:38:15 PM 43.0911 -76.1936 344° North 165 190 1,900 -1,050 Descending Boston Center
Mon 11:39:15 PM 43.1108 -76.1578 53° Northeast 114 131 900 -750 Descending Boston Center
Mon 11:40:15 PM 43.1125 -76.1122 87° East 83 96 400 -250 Descending Boston Center
Mon 11:41:15 PM 43.1125 -76.1067 90° East 64 74 400  Level Boston Center

Login

Don't have an account? Register now (free) for customized features, flight alerts, and more!